Time;durP1;ratioP1;P1;durP2;ratioP2;P2;SDS_P1;SDS_P2;PMS_P1;PMS_P2;Temp;Humidity;BMP_temperature;BMP_pressure;BME280_temperature;BME280_humidity;BME280_pressure;Samples;Min_cycle;Max_cycle;Signal;HPM_P1;HPM_P2
2023/01/29 00:01:56;;;;;;;29.87;20.10;;;;;;;-2.66;100.00;97241.81;5009415;28;105101;-67
2023/01/29 00:04:23;;;;;;;28.50;19.43;;;;;;;-2.79;100.00;97235.31;5010421;28;105678;-67
2023/01/29 00:06:50;;;;;;;31.73;21.03;;;;;;;-2.91;100.00;97232.09;5011876;28;102055;-66
2023/01/29 00:09:18;;;;;;;34.47;20.67;;;;;;;-2.88;100.00;97228.41;5044287;27;105300;-66
2023/01/29 00:11:47;;;;;;;32.20;20.93;;;;;;;-2.85;100.00;97228.91;5010106;28;106636;-65
2023/01/29 00:14:15;;;;;;;31.77;20.30;;;;;;;-2.71;100.00;97228.41;5010859;28;101880;-64
2023/01/29 00:16:42;;;;;;;31.27;19.83;;;;;;;-2.60;100.00;97223.00;5012079;28;103223;-66
2023/01/29 00:19:09;;;;;;;36.67;21.57;;;;;;;-2.54;100.00;97225.00;5013937;28;103990;-65
2023/01/29 00:21:36;;;;;;;35.90;21.87;;;;;;;-2.63;100.00;97236.28;5010972;28;105197;-66
2023/01/29 00:24:05;;;;;;;38.53;23.97;;;;;;;-2.56;100.00;97234.75;5010119;28;103231;-65
2023/01/29 00:26:32;;;;;;;33.07;22.40;;;;;;;-2.45;100.00;97228.47;5010403;28;101829;-65
2023/01/29 00:29:01;;;;;;;32.40;20.80;;;;;;;-2.39;100.00;97233.91;5010465;28;104200;-65
2023/01/29 00:31:29;;;;;;;30.67;20.40;;;;;;;-2.42;100.00;97233.38;5011046;28;101956;-65
2023/01/29 00:33:56;;;;;;;31.20;19.87;;;;;;;-2.37;100.00;97231.13;5011640;28;102178;-65
2023/01/29 00:36:25;;;;;;;32.67;20.63;;;;;;;-2.27;100.00;97237.91;5009971;28;105462;-66
2023/01/29 00:38:57;;;;;;;30.67;19.77;;;;;;;-2.46;100.00;97243.28;5010703;28;102792;-65
2023/01/29 00:46:58;;;;;;;32.80;20.63;;;;;;;-2.21;100.00;97232.09;5011836;28;101677;-65
2023/01/29 00:49:26;;;;;;;30.13;19.70;;;;;;;-2.10;100.00;97241.44;5010404;28;103640;-65
2023/01/29 00:54:33;;;;;;;33.53;21.20;;;;;;;-1.99;100.00;97252.47;5011078;28;101847;-66
2023/01/29 00:57:00;;;;;;;31.57;21.37;;;;;;;-1.95;100.00;97258.19;4993354;28;106018;-65
2023/01/29 00:59:29;;;;;;;34.97;22.47;;;;;;;-1.92;100.00;97258.69;5009656;28;105480;-66
2023/01/29 01:04:41;;;;;;;37.13;23.27;;;;;;;-1.74;100.00;97259.50;5012904;28;105523;-68
2023/01/29 01:07:08;;;;;;;35.27;22.77;;;;;;;-1.68;100.00;97264.09;5009642;28;101850;-66
2023/01/29 01:12:30;;;;;;;37.03;22.90;;;;;;;-1.51;100.00;97258.00;4985521;28;103206;-65
2023/01/29 01:14:58;;;;;;;35.03;22.73;;;;;;;-1.44;100.00;97261.59;5009118;28;101931;-64
2023/01/29 01:17:25;;;;;;;35.83;23.37;;;;;;;-1.50;100.00;97270.06;5009568;28;105256;-64
2023/01/29 01:19:52;;;;;;;36.17;23.47;;;;;;;-1.49;100.00;97266.47;5008877;28;105654;-64
2023/01/29 01:22:19;;;;;;;36.10;23.33;;;;;;;-1.47;100.00;97264.53;5009256;28;101878;-64
2023/01/29 01:24:46;;;;;;;37.70;22.70;;;;;;;-1.38;100.00;97263.59;5009587;28;105230;-64
2023/01/29 01:27:14;;;;;;;37.93;23.70;;;;;;;-1.34;100.00;97267.53;5012162;28;102213;-63
2023/01/29 01:29:41;;;;;;;39.23;22.80;;;;;;;-1.34;100.00;97269.31;5009361;28;105785;-63
2023/01/29 01:32:09;;;;;;;39.70;22.77;;;;;;;-1.27;100.00;97271.16;5008674;28;105323;-64
2023/01/29 01:34:36;;;;;;;38.70;23.40;;;;;;;-1.39;100.00;97266.34;5009226;28;101873;-64
2023/01/29 01:37:03;;;;;;;37.00;23.80;;;;;;;-1.39;100.00;97264.56;5008880;28;105305;-63
2023/01/29 01:39:30;;;;;;;35.47;22.37;;;;;;;-1.24;100.00;97270.84;5008421;28;104956;-65
2023/01/29 01:41:57;;;;;;;37.57;23.10;;;;;;;-1.11;100.00;97271.22;5009186;28;101854;-66
2023/01/29 01:44:53;;;;;;;34.10;22.20;;;;;;;-1.14;100.00;97266.34;5008840;28;106522;-66
2023/01/29 01:47:26;;;;;;;36.63;22.37;;;;;;;-1.21;100.00;97260.09;5012053;28;105265;-66
2023/01/29 01:49:55;;;;;;;35.47;22.53;;;;;;;-1.08;100.00;97265.69;5009015;28;105474;-66
2023/01/29 01:52:22;;;;;;;38.23;23.43;;;;;;;-1.04;100.00;97266.19;5008201;28;105907;-65
2023/01/29 01:54:51;;;;;;;32.80;21.47;;;;;;;-1.10;100.00;97262.41;5008908;28;101893;-66
2023/01/29 01:57:23;;;;;;;36.80;22.57;;;;;;;-1.14;100.00;97261.13;5009148;28;105264;-66
2023/01/29 01:59:58;;;;;;;35.17;22.57;;;;;;;-1.03;100.00;97253.00;5041949;27;105478;-65
2023/01/29 02:10:46;;;;;;;31.37;20.80;;;;;;;-1.05;100.00;97248.91;5012205;28;102340;-66
2023/01/29 02:13:15;;;;;;;35.40;21.37;;;;;;;-0.98;100.00;97255.13;5008266;28;105187;-66
2023/01/29 02:15:45;;;;;;;33.53;21.63;;;;;;;-1.02;100.00;97253.78;5009680;28;101713;-67
2023/01/29 02:18:16;;;;;;;34.37;21.13;;;;;;;-0.97;100.00;97259.38;5008627;28;105032;-66
2023/01/29 02:20:54;;;;;;;37.67;21.30;;;;;;;-1.00;100.00;97260.50;5007957;28;105801;-66
2023/01/29 02:23:59;;;;;;;34.60;20.93;;;;;;;-0.98;100.00;97265.56;5008064;28;101834;-67
2023/01/29 02:26:43;;;;;;;31.97;19.10;;;;;;;-0.95;100.00;97267.84;5002271;28;104209;-66
2023/01/29 02:29:25;;;;;;;32.80;20.17;;;;;;;-0.95;100.00;97266.06;5007927;28;105361;-65
2023/01/29 02:32:02;;;;;;;32.77;19.70;;;;;;;-1.10;100.00;97266.84;5008334;28;102085;-65
2023/01/29 02:37:30;;;;;;;30.07;18.50;;;;;;;-1.01;100.00;97274.53;5007225;28;102476;-65
2023/01/29 02:40:07;;;;;;;35.03;20.77;;;;;;;-1.01;100.00;97265.88;5008227;28;105316;-64
2023/01/29 02:42:42;;;;;;;33.27;20.77;;;;;;;-1.17;100.00;97274.47;5041906;27;104475;-65
2023/01/29 02:45:16;;;;;;;31.70;20.93;;;;;;;-1.03;100.00;97270.44;5008265;28;102370;-65
2023/01/29 02:47:48;;;;;;;32.83;21.87;;;;;;;-1.00;100.00;97273.53;5008221;28;104430;-66
2023/01/29 02:50:21;;;;;;;32.17;21.03;;;;;;;-0.89;100.00;97269.84;5007710;28;105172;-66
2023/01/29 02:52:58;;;;;;;36.47;21.50;;;;;;;-0.95;100.00;97268.69;5008395;28;101752;-66
2023/01/29 02:55:33;;;;;;;35.73;21.37;;;;;;;-1.01;100.00;97269.31;5009482;28;102543;-65
2023/01/29 02:58:05;;;;;;;35.73;21.73;;;;;;;-0.97;100.00;97265.41;5010918;28;104511;-65
2023/01/29 03:00:39;;;;;;;33.10;20.47;;;;;;;-1.03;100.00;97268.66;5007988;28;105230;-64
2023/01/29 03:03:12;;;;;;;36.07;21.10;;;;;;;-0.87;100.00;97265.28;5007396;28;105628;-64
2023/01/29 03:05:49;;;;;;;30.40;19.63;;;;;;;-0.87;100.00;97260.88;5008030;28;102038;-64
2023/01/29 03:08:22;;;;;;;35.43;21.07;;;;;;;-0.87;100.00;97253.06;5007694;28;105502;-64
2023/01/29 03:10:54;;;;;;;34.13;21.30;;;;;;;-0.91;100.00;97258.72;5007474;28;105627;-63
2023/01/29 03:13:29;;;;;;;36.03;21.50;;;;;;;-0.83;100.00;97264.00;5041542;27;101893;-65
2023/01/29 03:16:04;;;;;;;31.37;20.37;;;;;;;-0.78;100.00;97265.13;5007380;28;105357;-65
2023/01/29 03:18:49;;;;;;;34.40;20.47;;;;;;;-0.76;100.00;97260.59;5007199;28;105688;-65
2023/01/29 03:33:05;;;;;;;31.90;20.17;;;;;;;-0.72;100.00;97250.63;5008122;28;105099;-64
2023/01/29 03:35:38;;;;;;;34.87;19.53;;;;;;;-0.67;100.00;97243.94;5007568;28;102406;-64
2023/01/29 03:38:08;;;;;;;31.23;20.67;;;;;;;-0.65;100.00;97251.63;5011244;28;104801;-65
2023/01/29 03:40:44;;;;;;;34.20;21.30;;;;;;;-0.62;100.00;97256.53;4994194;28;105494;-64
2023/01/29 03:43:17;;;;;;;32.97;21.70;;;;;;;-0.52;100.00;97246.75;5014620;28;102138;-64
2023/01/29 03:45:56;;;;;;;34.67;21.40;;;;;;;-0.58;100.00;97247.38;5010708;28;105423;-66
2023/01/29 03:48:35;;;;;;;32.47;21.47;;;;;;;-0.81;100.00;97235.91;5010870;28;101768;-65
2023/01/29 03:51:16;;;;;;;32.60;20.93;;;;;;;-0.71;100.00;97239.22;5010730;28;105288;-65
2023/01/29 03:53:50;;;;;;;32.27;20.70;;;;;;;-0.70;100.00;97233.84;5010035;28;105256;-66
2023/01/29 03:56:33;;;;;;;29.37;19.87;;;;;;;-0.71;100.00;97228.78;5010390;28;101791;-66
2023/01/29 03:59:09;;;;;;;31.13;19.70;;;;;;;-0.71;100.00;97226.16;5010177;28;105259;-66
2023/01/29 04:01:59;;;;;;;33.13;20.70;;;;;;;-0.69;100.00;97237.25;5010271;28;104023;-67
2023/01/29 04:04:31;;;;;;;30.97;20.67;;;;;;;-0.68;100.00;97237.09;5010692;28;101848;-67
2023/01/29 04:07:06;;;;;;;31.40;19.40;;;;;;;-0.62;100.00;97239.06;5013761;28;103777;-66
2023/01/29 04:09:39;;;;;;;32.73;19.67;;;;;;;-0.66;100.00;97229.09;5010421;28;101903;-66
2023/01/29 04:12:09;;;;;;;32.77;20.10;;;;;;;-0.67;100.00;97225.66;5012174;28;102495;-67
2023/01/29 04:14:39;;;;;;;33.27;19.87;;;;;;;-0.64;100.00;97227.97;5009946;28;105526;-65
2023/01/29 04:17:11;;;;;;;30.33;19.63;;;;;;;-0.86;100.00;97225.97;5010698;28;101903;-67
2023/01/29 04:19:46;;;;;;;27.67;18.07;;;;;;;-0.75;100.00;97209.16;5010399;28;105000;-65
2023/01/29 04:22:19;;;;;;;30.00;18.57;;;;;;;-0.76;100.00;97204.94;5010123;28;105765;-65
2023/01/29 04:24:49;;;;;;;29.43;18.80;;;;;;;-0.73;100.00;97205.41;5010596;28;101864;-65
2023/01/29 04:27:26;;;;;;;28.97;19.57;;;;;;;-0.63;100.00;97208.72;5010341;28;103845;-65
2023/01/29 04:30:07;;;;;;;29.73;18.63;;;;;;;-0.66;100.00;97198.56;5047112;27;105020;-66
2023/01/29 04:32:48;;;;;;;31.73;20.00;;;;;;;-0.76;100.00;97190.09;5010132;28;103831;-65
2023/01/29 04:35:30;;;;;;;27.60;17.70;;;;;;;-0.71;100.00;97206.06;5011201;28;103140;-65
2023/01/29 04:38:08;;;;;;;31.90;19.30;;;;;;;-0.76;100.00;97197.94;5010089;28;101821;-64
2023/01/29 04:40:48;;;;;;;31.27;19.23;;;;;;;-0.83;100.00;97203.94;4993210;28;105557;-64
2023/01/29 04:43:24;;;;;;;29.33;18.23;;;;;;;-0.80;100.00;97201.81;5010968;28;103115;-64
2023/01/29 04:46:09;;;;;;;28.27;18.77;;;;;;;-0.72;100.00;97201.03;5011278;28;102033;-64
2023/01/29 04:48:50;;;;;;;27.93;18.40;;;;;;;-0.78;100.00;97197.25;5009737;28;105202;-63
2023/01/29 04:51:25;;;;;;;27.67;18.40;;;;;;;-0.78;100.00;97192.03;5043713;27;106151;-63
2023/01/29 04:54:01;;;;;;;31.50;19.37;;;;;;;-0.80;100.00;97186.16;5013298;28;101864;-63
2023/01/29 04:56:35;;;;;;;29.80;19.33;;;;;;;-0.70;100.00;97191.22;5010776;28;103063;-63
2023/01/29 04:59:06;;;;;;;29.43;19.17;;;;;;;-0.65;100.00;97200.22;5009919;28;101831;-62
2023/01/29 05:01:35;;;;;;;28.83;18.40;;;;;;;-0.71;100.00;97189.59;5010992;28;102817;-63
2023/01/29 05:04:06;;;;;;;31.83;18.40;;;;;;;-0.60;100.00;97189.28;5010348;28;103016;-63
2023/01/29 05:06:36;;;;;;;29.70;19.17;;;;;;;-0.70;100.00;97199.06;5011108;28;102101;-63
2023/01/29 05:09:04;;;;;;;28.60;18.73;;;;;;;-0.65;100.00;97204.63;5009775;28;103706;-63
2023/01/29 05:11:33;;;;;;;30.40;18.20;;;;;;;-0.66;100.00;97192.53;5010342;28;102595;-63
2023/01/29 05:14:03;;;;;;;30.70;19.27;;;;;;;-0.84;100.00;97194.44;5010283;28;101843;-63
2023/01/29 05:16:40;;;;;;;29.10;19.30;;;;;;;-0.79;100.00;97198.22;5013673;28;102854;-63
2023/01/29 05:19:08;;;;;;;29.97;19.53;;;;;;;-0.74;100.00;97197.75;5011022;28;101662;-63
2023/01/29 05:21:38;;;;;;;31.77;19.97;;;;;;;-0.79;100.00;97197.41;5009573;28;105211;-64
2023/01/29 05:24:14;;;;;;;29.47;19.20;;;;;;;-0.97;100.00;97202.78;5010037;28;101880;-65
2023/01/29 05:29:27;;;;;;;26.83;18.67;;;;;;;-0.90;100.00;97206.38;5009370;28;105407;-64
2023/01/29 05:31:54;;;;;;;30.60;19.70;;;;;;;-0.86;100.00;97212.91;5009037;28;104079;-66
2023/01/29 05:34:21;;;;;;;29.87;20.20;;;;;;;-0.93;100.00;97217.13;5043288;27;101849;-65
2023/01/29 05:36:49;;;;;;;29.47;19.03;;;;;;;-1.06;100.00;97216.75;5010124;28;102288;-65
2023/01/29 05:39:16;;;;;;;28.07;18.80;;;;;;;-1.26;100.00;97227.63;5012228;28;105993;-65
2023/01/29 05:41:43;;;;;;;32.73;20.03;;;;;;;-1.23;100.00;97230.72;5009366;28;103572;-63
2023/01/29 05:44:11;;;;;;;31.33;20.20;;;;;;;-1.28;100.00;97243.44;5008380;28;105031;-63
2023/01/29 05:46:37;;;;;;;34.07;21.03;;;;;;;-1.27;100.00;97239.03;5009496;28;101910;-63
2023/01/29 05:49:05;;;;;;;34.57;20.77;;;;;;;-1.16;100.00;97252.59;5010662;28;101699;-63
2023/01/29 05:51:32;;;;;;;33.20;21.97;;;;;;;-1.23;100.00;97251.59;5008575;28;104643;-64
2023/01/29 05:54:00;;;;;;;33.20;21.17;;;;;;;-1.24;100.00;97249.16;5009820;28;101793;-63
2023/01/29 05:56:27;;;;;;;32.30;20.53;;;;;;;-1.23;100.00;97246.38;5009142;28;105555;-63
2023/01/29 05:58:55;;;;;;;33.30;21.07;;;;;;;-1.26;100.00;97257.13;5012180;28;102463;-64
2023/01/29 06:01:24;;;;;;;33.87;21.47;;;;;;;-1.33;100.00;97256.13;5009294;28;105243;-64
2023/01/29 06:03:52;;;;;;;38.40;22.27;;;;;;;-1.30;100.00;97255.81;5008114;28;106296;-63
2023/01/29 06:06:19;;;;;;;32.80;20.93;;;;;;;-1.28;100.00;97260.84;5009040;28;101994;-64
2023/01/29 06:08:46;;;;;;;37.13;22.17;;;;;;;-1.35;100.00;97267.69;5008459;28;105448;-63
2023/01/29 06:11:17;;;;;;;35.30;22.07;;;;;;;-1.34;100.00;97261.47;5008497;28;105474;-63
2023/01/29 06:13:55;;;;;;;36.27;21.23;;;;;;;-1.34;100.00;97270.13;5042724;27;101880;-61
2023/01/29 06:16:22;;;;;;;32.63;21.17;;;;;;;-1.24;100.00;97260.41;5009258;28;105151;-63
2023/01/29 06:18:49;;;;;;;30.77;20.10;;;;;;;-1.20;100.00;97261.72;5008448;28;105709;-63
2023/01/29 06:21:16;;;;;;;32.70;20.80;;;;;;;-1.26;100.00;97264.94;5013472;28;101799;-66
2023/01/29 06:23:52;;;;;;;35.10;20.47;;;;;;;-1.26;100.00;97267.56;5022683;28;105604;-64
2023/01/29 06:26:21;;;;;;;33.47;20.07;;;;;;;-1.20;100.00;97271.34;5030500;28;101731;-66
2023/01/29 06:28:49;;;;;;;34.37;21.13;;;;;;;-1.21;100.00;97264.50;5029063;28;105498;-62
2023/01/29 06:31:17;;;;;;;33.43;21.07;;;;;;;-1.27;100.00;97272.97;5029842;27;102998;-60
2023/01/29 06:33:50;;;;;;;34.83;21.83;;;;;;;-1.28;100.00;97269.50;5030246;27;101979;-71
2023/01/29 06:36:18;;;;;;;35.73;22.43;;;;;;;-1.22;100.00;97268.88;5030367;27;102527;-65
2023/01/29 06:38:46;;;;;;;34.23;21.97;;;;;;;-1.29;100.00;97262.66;5012356;28;105931;-62
2023/01/29 06:41:17;;;;;;;36.63;21.17;;;;;;;-1.48;100.00;97267.31;5029565;28;101962;-60
2023/01/29 06:43:53;;;;;;;33.23;19.70;;;;;;;-1.39;100.00;97267.19;5032284;27;102768;-63
2023/01/29 06:46:20;;;;;;;31.87;19.30;;;;;;;-1.70;100.00;97268.63;5028862;28;101803;-61
2023/01/29 06:48:47;;;;;;;31.37;20.37;;;;;;;-1.91;100.00;97273.34;5029496;28;105288;-65
2023/01/29 06:51:14;;;;;;;32.87;21.57;;;;;;;-1.74;100.00;97266.47;5028778;28;105733;-67
2023/01/29 06:53:44;;;;;;;31.43;19.60;;;;;;;-1.81;100.00;97271.47;5029116;28;101888;-68
2023/01/29 06:56:11;;;;;;;32.73;19.00;;;;;;;-1.98;100.00;97263.72;5029336;28;104997;-64
2023/01/29 06:58:38;;;;;;;30.23;20.50;;;;;;;-1.87;100.00;97266.88;5028392;28;105436;-66
2023/01/29 07:01:08;;;;;;;34.17;21.43;;;;;;;-1.91;100.00;97273.34;5028754;28;101884;-61
2023/01/29 07:03:42;;;;;;;36.67;21.80;;;;;;;-2.16;100.00;97270.72;5028816;28;104079;-59
2023/01/29 07:06:09;;;;;;;28.10;18.80;;;;;;;-2.21;100.00;97279.00;5031852;28;105729;-59
2023/01/29 07:08:37;;;;;;;30.23;18.53;;;;;;;-2.14;100.00;97280.03;5029349;28;102364;-57
2023/01/29 07:11:04;;;;;;;32.20;18.53;;;;;;;-2.28;100.00;97282.34;5031018;27;102600;-58
2023/01/29 07:13:32;;;;;;;35.17;21.40;;;;;;;-2.30;100.00;97264.25;5032520;28;101809;-60
2023/01/29 07:16:00;;;;;;;32.80;20.67;;;;;;;-2.29;100.00;97272.91;5032614;27;102904;-60
2023/01/29 07:18:29;;;;;;;33.80;21.03;;;;;;;-2.20;100.00;97278.03;5030871;28;105796;-60
2023/01/29 07:20:57;;;;;;;30.40;20.13;;;;;;;-2.30;100.00;97279.88;5032543;27;101828;-60
2023/01/29 07:23:24;;;;;;;35.53;20.10;;;;;;;-2.27;100.00;97269.19;5032519;27;102308;-60
2023/01/29 07:25:52;;;;;;;34.17;19.03;;;;;;;-2.14;100.00;97274.81;5031991;27;102556;-60
2023/01/29 07:28:21;;;;;;;29.43;18.77;;;;;;;-2.02;100.00;97268.38;5034508;28;101912;-60
2023/01/29 07:30:48;;;;;;;34.23;21.20;;;;;;;-1.82;100.00;97269.00;5030836;28;105396;-60
2023/01/29 07:33:21;;;;;;;31.67;20.03;;;;;;;-2.07;100.00;97262.81;5032697;27;101815;-60
2023/01/29 07:35:50;;;;;;;31.73;20.67;;;;;;;-1.97;100.00;97265.34;5030657;28;105774;-60
2023/01/29 07:38:17;;;;;;;31.20;20.03;;;;;;;-1.87;100.00;97259.06;5032238;27;102483;-60
2023/01/29 07:40:44;;;;;;;25.87;16.40;;;;;;;-1.97;100.00;97257.53;5031209;28;102490;-61
2023/01/29 07:43:29;;;;;;;25.27;14.87;;;;;;;-2.10;100.00;97251.88;5030969;28;104800;-60
2023/01/29 07:45:56;;;;;;;23.20;15.00;;;;;;;-1.99;100.00;97251.63;5030578;28;105007;-60
2023/01/29 07:48:23;;;;;;;24.50;14.97;;;;;;;-1.80;100.00;97252.25;5032328;27;101851;-60
2023/01/29 07:50:57;;;;;;;21.83;14.17;;;;;;;-1.53;100.00;97252.09;5033960;28;103537;-60
2023/01/29 07:53:43;;;;;;;19.67;13.33;;;;;;;-1.48;100.00;97244.63;5030797;28;101902;-60
2023/01/29 07:56:10;;;;;;;26.57;16.63;;;;;;;-1.38;100.00;97237.50;5032454;28;102494;-61
2023/01/29 07:58:37;;;;;;;18.77;12.80;;;;;;;-1.26;100.00;97236.25;5030536;28;105518;-62
2023/01/29 08:01:06;;;;;;;21.07;13.47;;;;;;;-1.08;100.00;97230.94;5030754;28;101894;-63
2023/01/29 08:03:33;;;;;;;26.30;16.80;;;;;;;-1.12;100.00;97232.22;5032165;27;102794;-60
2023/01/29 08:06:03;;;;;;;17.27;12.27;;;;;;;-1.23;100.00;97219.47;5030311;28;103650;-77
2023/01/29 08:08:30;;;;;;;17.00;11.93;;;;;;;-1.11;100.00;97219.03;5030757;28;101937;-68
2023/01/29 08:10:57;;;;;;;18.77;12.50;;;;;;;-1.31;100.00;97225.47;5033642;28;105725;-68
2023/01/29 08:13:25;;;;;;;19.50;11.60;;;;;;;-1.08;100.00;97223.94;5032148;27;101812;-69
2023/01/29 08:15:52;;;;;;;17.87;12.23;;;;;;;-1.03;100.00;97221.69;5030563;28;105485;-69
2023/01/29 08:18:18;;;;;;;18.53;11.53;;;;;;;-0.94;100.00;97222.50;5030134;28;105278;-69
2023/01/29 08:20:45;;;;;;;20.63;12.67;;;;;;;-0.94;100.00;97225.94;5030463;28;101883;-69
2023/01/29 08:23:53;;;;;;;19.03;11.30;;;;;;;-0.92;100.00;97228.38;5031114;27;102336;-69
2023/01/29 08:26:21;;;;;;;15.93;10.97;;;;;;;-0.85;100.00;97224.97;5031443;28;102865;-69
2023/01/29 08:28:48;;;;;;;17.03;11.57;;;;;;;-0.83;100.00;97230.06;5030723;28;101902;-69
2023/01/29 08:31:15;;;;;;;18.17;11.93;;;;;;;-0.69;100.00;97219.78;5030440;28;105154;-69
2023/01/29 08:33:54;;;;;;;17.73;11.30;;;;;;;-0.78;100.00;97228.59;5033336;28;105820;-69
2023/01/29 08:36:22;;;;;;;14.93;10.80;;;;;;;-0.69;100.00;97218.97;5031607;27;102340;-69
2023/01/29 08:38:48;;;;;;;16.50;12.07;;;;;;;-0.45;100.00;97221.63;5029760;28;105408;-69
2023/01/29 08:41:15;;;;;;;15.63;11.13;;;;;;;-0.36;100.00;97229.31;5030320;28;101748;-69
2023/01/29 08:43:51;;;;;;;16.50;11.87;;;;;;;-0.17;100.00;97225.56;5030214;28;104771;-69
2023/01/29 08:46:18;;;;;;;16.30;10.77;;;;;;;-0.41;100.00;97231.59;5031080;27;102037;-69
2023/01/29 08:48:44;;;;;;;15.77;11.00;;;;;;;-0.39;100.00;97227.00;5030256;28;102078;-69
2023/01/29 08:51:12;;;;;;;15.00;10.83;;;;;;;-0.07;100.00;97232.25;5031035;27;102396;-69
2023/01/29 08:53:40;;;;;;;14.20;10.20;;;;;;;0.03;100.00;97231.09;5012031;28;106543;-69
2023/01/29 08:56:07;;;;;;;15.97;10.77;;;;;;;-0.11;100.00;97226.53;5033142;28;101818;-69
2023/01/29 08:58:34;;;;;;;17.33;11.23;;;;;;;-0.23;100.00;97229.63;5029036;28;105890;-69
2023/01/29 09:01:11;;;;;;;16.43;10.50;;;;;;;0.11;100.00;97244.16;5031108;28;101917;-69
2023/01/29 09:03:46;;;;;;;15.97;10.40;;;;;;;0.62;100.00;97240.31;5030102;28;104429;-69
2023/01/29 09:06:14;;;;;;;15.27;9.97;;;;;;;0.34;100.00;97241.69;5030940;27;102691;-69
2023/01/29 09:08:41;;;;;;;15.20;11.00;;;;;;;0.58;100.00;97239.84;5029832;28;101954;-69
2023/01/29 09:11:09;;;;;;;12.77;9.30;;;;;;;0.66;100.00;97241.63;5029806;28;105394;-69
2023/01/29 09:13:38;;;;;;;15.77;10.53;;;;;;;0.84;100.00;97232.56;5030212;28;105407;-69
2023/01/29 09:16:05;;;;;;;13.90;10.83;;;;;;;0.75;100.00;97237.97;5031186;28;101936;-69
2023/01/29 09:18:34;;;;;;;15.17;10.80;;;;;;;0.87;100.00;97244.47;5032531;28;104912;-69
2023/01/29 09:21:01;;;;;;;15.33;10.67;;;;;;;1.20;100.00;97246.78;5029378;28;101914;-68
2023/01/29 09:23:32;;;;;;;14.10;9.97;;;;;;;1.12;100.00;97251.25;5029681;28;103898;-69
2023/01/29 09:26:00;;;;;;;13.70;10.10;;;;;;;1.18;100.00;97253.16;5029212;28;105096;-69
2023/01/29 09:28:27;;;;;;;13.73;10.13;;;;;;;1.58;100.00;97256.38;5030875;27;101850;-69
2023/01/29 09:30:54;;;;;;;14.70;10.50;;;;;;;1.65;100.00;97256.53;5030777;27;102500;-69
2023/01/29 09:33:54;;;;;;;15.40;10.73;;;;;;;1.73;100.00;97256.44;5030214;27;103159;-69
2023/01/29 09:36:21;;;;;;;15.20;10.17;;;;;;;1.47;100.00;97253.34;5030653;27;101788;-69
2023/01/29 09:38:47;;;;;;;13.57;9.60;;;;;;;1.40;100.00;97260.25;5030645;27;102795;-69
2023/01/29 09:41:26;;;;;;;13.53;9.30;;;;;;;1.42;100.00;97264.34;5033187;28;105794;-69
2023/01/29 09:44:02;;;;;;;13.07;9.30;;;;;;;1.55;100.00;97275.09;5030249;28;105264;-69
2023/01/29 09:46:39;;;;;;;12.37;9.07;;;;;;;1.58;100.00;97272.13;5029871;28;103964;-69
2023/01/29 09:49:21;;;;;;;12.63;9.47;;;;;;;1.32;100.00;97276.03;5030057;28;101871;-69
2023/01/29 09:51:53;;;;;;;12.23;9.37;;;;;;;1.26;100.00;97267.03;5030090;28;104846;-69
2023/01/29 09:54:41;;;;;;;14.10;9.37;;;;;;;1.37;100.00;97269.28;5029661;28;105275;-69
2023/01/29 09:57:15;;;;;;;18.07;11.20;;;;;;;1.34;100.00;97277.50;5029995;28;101841;-70
2023/01/29 09:59:42;;;;;;;11.73;8.83;;;;;;;1.69;100.00;97278.78;5029214;28;105120;-69
2023/01/29 10:02:19;;;;;;;12.87;9.57;;;;;;;1.81;100.00;97277.38;5029419;28;105638;-69
2023/01/29 10:05:16;;;;;;;13.83;9.47;;;;;;;1.95;100.00;97279.25;5033311;28;101705;-69
2023/01/29 10:08:12;;;;;;;14.50;9.93;;;;;;;2.33;100.00;97296.63;5029460;28;105580;-69
2023/01/29 10:10:50;;;;;;;15.07;10.40;;;;;;;2.28;100.00;97288.47;5031436;27;102174;-69
2023/01/29 10:13:45;;;;;;;12.67;9.50;;;;;;;1.98;100.00;97292.00;5028831;28;105120;-69
2023/01/29 10:16:27;;;;;;;12.50;9.13;;;;;;;2.13;100.00;97285.81;5028943;28;105565;-69
2023/01/29 10:19:27;;;;;;;14.03;9.43;;;;;;;2.10;100.00;97288.81;5029690;28;102016;-69
2023/01/29 10:22:07;;;;;;;14.73;9.47;;;;;;;2.04;100.00;97296.56;5025989;28;105217;-69
2023/01/29 10:24:39;;;;;;;15.27;11.07;;;;;;;2.46;100.00;97302.13;5028938;28;105443;-68
2023/01/29 10:27:16;;;;;;;12.70;9.50;;;;;;;2.67;100.00;97286.50;5032175;28;102016;-68
2023/01/29 10:29:45;;;;;;;12.00;9.50;;;;;;;2.39;100.00;97291.50;5028902;28;103650;-68
2023/01/29 10:32:18;;;;;;;11.43;8.97;;;;;;;2.00;100.00;97292.63;5030406;27;101936;-68
2023/01/29 10:34:51;;;;;;;14.30;9.87;;;;;;;2.66;100.00;97287.47;5029102;28;105233;-68
2023/01/29 10:37:24;;;;;;;14.93;10.27;;;;;;;2.65;100.00;97280.59;5028109;28;105125;-69
2023/01/29 10:39:52;;;;;;;14.03;9.43;;;;;;;2.58;100.00;97282.31;5029906;27;101744;-69
2023/01/29 10:42:28;;;;;;;13.20;9.47;;;;;;;2.23;100.00;97288.19;5029467;28;105537;-70
2023/01/29 10:45:08;;;;;;;14.03;9.50;;;;;;;2.27;100.00;97277.19;5028324;28;105129;-70
2023/01/29 10:48:09;;;;;;;16.17;10.70;;;;;;;2.49;100.00;97284.19;5029455;28;101882;-69
2023/01/29 10:50:47;;;;;;;14.23;10.57;;;;;;;1.94;100.00;97280.22;5030892;28;105555;-68
2023/01/29 10:54:00;;;;;;;19.63;10.27;;;;;;;2.38;100.00;97276.75;5028320;28;101817;-70
2023/01/29 10:56:47;;;;;;;14.63;10.13;;;;;;;2.39;100.00;97274.94;5028164;28;104952;-68
2023/01/29 10:59:35;;;;;;;17.47;12.33;;;;;;;2.36;100.00;97267.44;5027814;28;105629;-67
2023/01/29 11:02:03;;;;;;;15.63;11.10;;;;;;;2.30;100.00;97268.16;5028269;28;101731;-66
2023/01/29 11:04:32;;;;;;;14.93;10.97;;;;;;;2.55;100.00;97259.84;5028191;28;104826;-65
2023/01/29 11:07:00;;;;;;;13.73;9.80;;;;;;;2.26;100.00;97256.38;5028983;28;103205;-65
2023/01/29 11:09:32;;;;;;;16.73;11.17;;;;;;;2.27;100.00;97248.31;5029574;28;101877;-65
2023/01/29 11:12:04;;;;;;;17.70;10.93;;;;;;;2.79;100.00;97235.16;5029904;27;102321;-65
2023/01/29 11:14:39;;;;;;;17.47;12.33;;;;;;;2.80;100.00;97234.16;5032390;27;102784;-65
2023/01/29 11:17:06;;;;;;;17.83;12.43;;;;;;;3.20;100.00;97228.41;5029675;27;102582;-65
2023/01/29 11:19:39;;;;;;;17.83;12.63;;;;;;;2.82;100.00;97232.97;5027353;28;105847;-65
2023/01/29 11:22:14;;;;;;;18.13;12.33;;;;;;;2.21;100.00;97235.91;5027976;28;101949;-65
2023/01/29 11:24:41;;;;;;;15.77;11.97;;;;;;;2.17;100.00;97228.56;5028049;28;105286;-65
2023/01/29 11:27:22;;;;;;;18.90;12.83;;;;;;;2.45;100.00;97226.97;5027509;28;105534;-64
2023/01/29 11:29:50;;;;;;;17.07;12.70;;;;;;;2.31;100.00;97225.16;5027953;28;101863;-64
2023/01/29 11:33:03;;;;;;;17.67;13.10;;;;;;;2.43;100.00;97221.09;5027889;28;105138;-64
2023/01/29 11:35:32;;;;;;;20.90;13.67;;;;;;;2.39;100.00;97225.88;5027422;28;105410;-64
2023/01/29 11:38:09;;;;;;;18.20;12.37;;;;;;;2.93;100.00;97223.81;5030833;28;101982;-65
2023/01/29 11:40:39;;;;;;;20.30;14.43;;;;;;;2.62;100.00;97229.25;5027340;28;105114;-64
2023/01/29 11:43:37;;;;;;;21.17;13.53;;;;;;;2.47;100.00;97233.66;5029034;27;101779;-64
2023/01/29 11:46:11;;;;;;;21.70;12.73;;;;;;;2.26;100.00;97238.81;5027366;28;105342;-65
2023/01/29 11:48:45;;;;;;;19.43;13.47;;;;;;;2.55;100.00;97241.47;5027064;28;105428;-64
2023/01/29 11:51:20;;;;;;;18.40;13.10;;;;;;;2.81;100.00;97238.41;5029031;27;101746;-65
2023/01/29 11:53:59;;;;;;;19.00;12.87;;;;;;;3.16;100.00;97233.22;5028970;27;102341;-68
2023/01/29 11:56:29;;;;;;;19.27;12.53;;;;;;;3.50;100.00;97220.25;5026894;27;105434;-67
2023/01/29 11:58:58;;;;;;;18.47;12.53;;;;;;;4.01;100.00;97223.59;5031039;28;101795;-64
2023/01/29 12:01:33;;;;;;;18.40;13.23;;;;;;;4.12;100.00;97217.81;5033739;28;105073;-64
2023/01/29 12:04:02;;;;;;;14.80;10.73;;;;;;;4.16;100.00;97203.28;5030922;28;102002;-63
2023/01/29 12:06:35;;;;;;;15.40;10.00;;;;;;;3.99;100.00;97197.47;5014118;28;102771;-63
2023/01/29 12:09:09;;;;;;;13.33;10.43;;;;;;;3.81;100.00;97183.94;5031674;27;103107;-63